Time;durP1;ratioP1;P1;durP2;ratioP2;P2;SDS_P1;SDS_P2;PMS_P1;PMS_P2;Temp;Humidity;BMP_temperature;BMP_pressure;BME280_temperature;BME280_humidity;BME280_pressure;Samples;Min_cycle;Max_cycle;Signal;HPM_P1;HPM_P2
2022/08/31 00:06:05;;;;;;;2.53;1.92;;;15.60;99.90;;;;;;5050415;28;20041;-66
2022/08/31 00:08:31;;;;;;;3.17;1.95;;;15.50;99.90;;;;;;5013757;28;1066508;-66
2022/08/31 00:10:57;;;;;;;3.70;2.08;;;15.50;99.90;;;;;;5048745;28;20036;-66
2022/08/31 00:13:25;;;;;;;3.88;1.80;;;15.40;99.90;;;;;;5050428;28;20055;-66
2022/08/31 00:15:52;;;;;;;4.03;2.10;;;15.40;99.90;;;;;;5051256;28;20059;-66
2022/08/31 00:18:18;;;;;;;4.20;2.00;;;15.40;99.90;;;;;;5048271;28;20470;-66
2022/08/31 00:20:45;;;;;;;2.35;1.85;;;15.30;99.90;;;;;;5050687;28;20079;-65
2022/08/31 00:23:13;;;;;;;2.72;2.13;;;15.30;99.90;;;;;;5050622;28;20045;-65
2022/08/31 00:25:41;;;;;;;3.85;1.80;;;15.20;99.90;;;;;;5051140;28;20041;-66
2022/08/31 00:28:07;;;;;;;2.17;1.90;;;15.20;99.90;;;;;;5048385;28;20063;-66
2022/08/31 00:30:34;;;;;;;2.88;1.90;;;15.20;99.90;;;;;;5050705;28;20051;-65
2022/08/31 00:33:00;;;;;;;3.00;2.15;;;15.20;99.90;;;;;;5048504;28;20080;-65
2022/08/31 00:35:27;;;;;;;3.25;2.00;;;15.20;99.90;;;;;;5049022;28;20123;-65
2022/08/31 00:37:53;;;;;;;5.50;1.90;;;15.10;99.90;;;;;;5050143;28;20032;-66
2022/08/31 00:40:19;;;;;;;3.38;2.00;;;15.10;99.90;;;;;;5051126;28;20036;-65
2022/08/31 00:42:45;;;;;;;2.97;2.00;;;15.10;99.90;;;;;;5048352;28;20043;-65
2022/08/31 00:45:11;;;;;;;2.80;1.88;;;15.10;99.90;;;;;;5050089;28;20477;-65
2022/08/31 00:47:37;;;;;;;2.40;1.80;;;15.10;99.90;;;;;;5050396;28;20090;-65
2022/08/31 00:50:07;;;;;;;2.88;1.90;;;15.20;99.90;;;;;;5048296;28;20044;-65
2022/08/31 00:52:38;;;;;;;7.80;1.80;;;15.10;99.90;;;;;;5049239;28;20491;-65
2022/08/31 00:55:28;;;;;;;2.08;1.75;;;15.10;99.90;;;;;;5050383;28;20112;-65
2022/08/31 00:57:56;;;;;;;2.53;1.80;;;15.10;99.90;;;;;;5050933;28;20137;-65
2022/08/31 01:00:26;;;;;;;2.33;1.80;;;15.10;99.90;;;;;;5047649;28;20051;-66
2022/08/31 01:02:52;;;;;;;2.92;1.70;;;15.00;99.90;;;;;;5043413;28;20037;-65
2022/08/31 01:05:18;;;;;;;2.67;1.70;;;15.00;99.90;;;;;;5050633;28;20055;-65
2022/08/31 01:07:49;;;;;;;3.75;1.70;;;15.00;99.90;;;;;;5047380;28;20040;-65
2022/08/31 01:10:16;;;;;;;2.47;1.70;;;14.90;99.90;;;;;;5049296;28;20033;-65
2022/08/31 01:12:44;;;;;;;2.97;1.75;;;14.90;99.90;;;;;;5050001;28;20072;-66
2022/08/31 01:15:11;;;;;;;7.07;1.77;;;14.80;99.90;;;;;;5048430;28;20044;-66
2022/08/31 01:17:37;;;;;;;2.60;1.77;;;14.80;99.90;;;;;;5049251;28;20033;-65
2022/08/31 01:20:08;;;;;;;2.28;1.80;;;14.70;99.90;;;;;;5050022;28;20044;-65
2022/08/31 01:22:37;;;;;;;;;;;14.70;99.90;;;;;;5050741;28;20098;-65
2022/08/31 01:25:03;;;;;;;1.70;1.55;;;14.50;99.90;;;;;;5047572;28;19916;-65
2022/08/31 01:27:33;;;;;;;3.72;1.60;;;14.40;99.90;;;;;;5049584;28;20071;-65
2022/08/31 01:30:00;;;;;;;2.67;1.73;;;14.40;99.90;;;;;;5050219;28;20045;-65
2022/08/31 01:32:26;;;;;;;2.17;1.50;;;14.30;99.90;;;;;;5047558;28;20060;-65
2022/08/31 01:34:52;;;;;;;2.05;1.50;;;14.40;99.90;;;;;;5049364;28;20040;-65
2022/08/31 01:37:18;;;;;;;2.47;1.40;;;14.30;99.90;;;;;;5049594;28;20688;-65
2022/08/31 01:39:44;;;;;;;3.17;1.60;;;14.20;99.90;;;;;;5048393;28;20034;-65
2022/08/31 01:42:09;;;;;;;1.73;1.33;;;14.20;99.90;;;;;;5048672;28;20045;-65
2022/08/31 01:44:35;;;;;;;6.50;1.55;;;14.10;99.90;;;;;;5049735;28;20047;-65
2022/08/31 01:47:01;;;;;;;2.05;1.55;;;14.00;99.90;;;;;;5050277;28;20491;-65
2022/08/31 01:49:27;;;;;;;2.30;1.50;;;14.00;99.90;;;;;;5047178;28;20132;-66
2022/08/31 01:51:53;;;;;;;1.92;1.45;;;13.90;99.90;;;;;;5049325;28;20128;-65
2022/08/31 01:54:21;;;;;;;3.22;1.38;;;13.90;99.90;;;;;;5050068;28;20033;-65
2022/08/31 01:56:48;;;;;;;1.42;1.30;;;13.80;99.90;;;;;;5047390;28;20722;-65
2022/08/31 01:59:16;;;;;;;3.80;1.38;;;13.80;99.90;;;;;;5049369;28;20044;-66
2022/08/31 02:01:44;;;;;;;2.47;1.38;;;13.90;99.90;;;;;;5049423;28;20041;-65
2022/08/31 02:04:12;;;;;;;2.40;1.30;;;13.90;99.90;;;;;;5050180;28;20037;-65
2022/08/31 02:06:41;;;;;;;2.88;1.25;;;13.90;99.90;;;;;;5046779;28;20450;-65
2022/08/31 02:09:07;;;;;;;1.52;1.30;;;13.80;99.90;;;;;;5049536;28;20037;-65
2022/08/31 02:11:33;;;;;;;1.80;1.20;;;13.80;99.90;;;;;;5049409;28;20037;-65
2022/08/31 02:13:59;;;;;;;2.25;1.30;;;13.90;99.90;;;;;;5044924;28;20036;-65
2022/08/31 02:16:24;;;;;;;1.45;1.10;;;13.90;99.90;;;;;;5049272;28;20090;-65
2022/08/31 02:18:50;;;;;;;3.17;1.30;;;13.80;99.90;;;;;;5049848;28;20493;-65
2022/08/31 02:21:17;;;;;;;2.22;1.20;;;13.90;99.90;;;;;;5051903;28;20505;-65
2022/08/31 02:23:42;;;;;;;1.15;1.08;;;13.90;99.90;;;;;;5050750;28;20044;-65
2022/08/31 02:26:09;;;;;;;1.55;1.17;;;13.90;99.90;;;;;;5034833;28;20045;-65
2022/08/31 02:28:35;;;;;;;2.80;1.30;;;13.90;99.90;;;;;;5053481;28;20082;-65
2022/08/31 02:31:01;;;;;;;2.45;1.42;;;13.80;99.90;;;;;;5050337;28;20079;-65
2022/08/31 02:33:27;;;;;;;2.50;1.15;;;13.80;99.90;;;;;;5052389;28;20080;-65
2022/08/31 02:35:52;;;;;;;1.88;1.50;;;13.60;99.90;;;;;;5053200;28;20060;-65
2022/08/31 02:38:19;;;;;;;2.00;1.45;;;13.50;99.90;;;;;;5050509;28;20444;-66
2022/08/31 02:40:45;;;;;;;2.97;1.38;;;13.50;99.90;;;;;;5052066;28;20079;-65
2022/08/31 02:43:11;;;;;;;3.50;1.40;;;13.40;99.90;;;;;;5052488;28;20045;-65
2022/08/31 02:45:37;;;;;;;3.55;1.30;;;13.40;99.90;;;;;;5052991;28;20167;-65
2022/08/31 02:48:05;;;;;;;2.72;1.25;;;13.30;99.90;;;;;;5050230;28;20072;-65
2022/08/31 02:50:31;;;;;;;1.55;1.20;;;13.20;99.90;;;;;;5052079;28;20112;-66
2022/08/31 02:52:57;;;;;;;3.22;1.30;;;13.20;99.90;;;;;;5052442;28;20174;-65
2022/08/31 02:55:24;;;;;;;2.05;1.30;;;13.20;99.90;;;;;;5052567;28;20068;-66
2022/08/31 02:57:50;;;;;;;2.15;1.02;;;13.10;99.90;;;;;;5049825;28;20128;-65
2022/08/31 03:00:17;;;;;;;2.08;1.20;;;13.10;99.90;;;;;;5052159;28;20495;-65
2022/08/31 03:02:43;;;;;;;2.22;1.35;;;13.10;99.90;;;;;;5052309;28;20056;-66
2022/08/31 03:05:09;;;;;;;2.38;1.20;;;13.10;99.90;;;;;;5049742;28;20049;-65
2022/08/31 03:07:36;;;;;;;2.00;1.20;;;13.10;99.90;;;;;;5051752;28;20162;-65
2022/08/31 03:10:04;;;;;;;1.70;1.20;;;13.10;99.90;;;;;;5052569;28;20049;-65
2022/08/31 03:12:30;;;;;;;1.45;1.25;;;13.00;99.90;;;;;;5049388;28;20419;-65
2022/08/31 03:14:56;;;;;;;4.70;1.15;;;13.00;99.90;;;;;;5051843;28;20045;-66
2022/08/31 03:17:21;;;;;;;1.63;1.02;;;13.00;99.90;;;;;;5052257;28;20033;-65
2022/08/31 03:19:47;;;;;;;2.22;1.27;;;13.00;99.90;;;;;;5047879;28;20029;-65
2022/08/31 03:22:13;;;;;;;1.65;1.20;;;13.00;99.90;;;;;;5050711;28;20451;-65
2022/08/31 03:24:39;;;;;;;1.63;1.20;;;13.10;99.90;;;;;;5044144;28;20045;-65
2022/08/31 03:27:05;;;;;;;1.75;1.27;;;13.00;99.90;;;;;;5052119;28;20051;-65
2022/08/31 03:29:31;;;;;;;1.88;1.30;;;13.00;99.90;;;;;;5049907;28;20114;-65
2022/08/31 03:31:56;;;;;;;1.83;1.23;;;13.00;99.90;;;;;;5050127;28;20064;-65
2022/08/31 03:34:22;;;;;;;1.50;1.20;;;13.00;99.90;;;;;;5051811;28;20033;-65
2022/08/31 03:36:47;;;;;;;1.85;1.33;;;13.00;99.90;;;;;;5049580;28;20044;-66
2022/08/31 03:39:13;;;;;;;2.28;1.50;;;12.90;99.90;;;;;;5050847;28;20043;-65
2022/08/31 03:41:39;;;;;;;1.92;1.20;;;12.90;99.90;;;;;;5051618;28;20047;-65
2022/08/31 03:44:05;;;;;;;2.53;1.40;;;12.80;99.90;;;;;;5051919;28;20609;-65
2022/08/31 03:46:32;;;;;;;1.85;1.35;;;12.80;99.90;;;;;;5049879;28;20094;-64
2022/08/31 03:49:02;;;;;;;1.60;1.30;;;12.70;99.90;;;;;;5050505;28;20048;-65
2022/08/31 03:51:28;;;;;;;2.63;1.40;;;12.70;99.90;;;;;;5050481;28;20051;-65
2022/08/31 03:53:54;;;;;;;2.17;1.50;;;12.60;99.90;;;;;;5049352;28;20063;-65
2022/08/31 03:56:20;;;;;;;2.45;1.50;;;12.50;99.90;;;;;;5048152;28;20440;-65
2022/08/31 03:58:46;;;;;;;2.38;1.40;;;12.50;99.90;;;;;;5051391;28;20087;-65
2022/08/31 04:01:13;;;;;;;3.05;1.52;;;12.50;99.90;;;;;;5051220;28;20041;-65
2022/08/31 04:03:39;;;;;;;8.18;1.48;;;12.40;99.90;;;;;;5048034;28;20112;-65
2022/08/31 04:06:11;;;;;;;2.40;1.60;;;12.50;99.90;;;;;;5048620;28;20048;-66
2022/08/31 04:08:38;;;;;;;2.15;1.60;;;12.40;99.90;;;;;;5050125;28;20410;-65
2022/08/31 04:11:10;;;;;;;2.20;1.60;;;12.40;99.90;;;;;;5048347;28;20529;-65
2022/08/31 04:13:37;;;;;;;4.10;1.90;;;12.40;99.90;;;;;;5050808;28;20129;-65
2022/08/31 04:16:07;;;;;;;2.05;1.65;;;12.40;99.90;;;;;;5050954;28;20033;-66
2022/08/31 04:18:35;;;;;;;3.20;1.50;;;12.40;99.90;;;;;;5051100;28;20047;-65
2022/08/31 04:21:01;;;;;;;3.60;1.80;;;12.40;99.90;;;;;;5048175;28;20510;-65
2022/08/31 04:23:28;;;;;;;2.60;1.70;;;12.40;99.90;;;;;;5043673;28;20045;-65
2022/08/31 04:25:56;;;;;;;3.03;1.90;;;12.30;99.90;;;;;;5047830;28;20041;-65
2022/08/31 04:28:22;;;;;;;4.30;1.70;;;12.40;99.90;;;;;;5045692;28;20434;-65
2022/08/31 04:30:48;;;;;;;3.70;1.90;;;12.40;99.90;;;;;;5048641;28;20036;-66
2022/08/31 04:33:15;;;;;;;3.47;2.00;;;12.30;99.90;;;;;;5048641;28;20041;-65
2022/08/31 04:35:41;;;;;;;2.10;1.67;;;12.30;99.90;;;;;;5046302;28;20032;-65
2022/08/31 04:38:07;;;;;;;4.05;2.20;;;12.20;99.90;;;;;;5045871;28;20048;-65
2022/08/31 04:40:36;;;;;;;2.47;1.90;;;12.10;99.90;;;;;;5048124;28;20098;-65
2022/08/31 04:43:02;;;;;;;4.80;1.85;;;12.20;99.90;;;;;;5049696;28;20041;-65
2022/08/31 04:45:28;;;;;;;3.17;1.90;;;12.20;99.90;;;;;;5045996;28;20048;-65
2022/08/31 04:47:53;;;;;;;3.50;1.80;;;12.20;99.90;;;;;;5049989;28;20081;-65
2022/08/31 04:50:20;;;;;;;3.15;1.90;;;12.20;99.90;;;;;;5049622;28;20106;-64
2022/08/31 04:52:49;;;;;;;3.50;1.80;;;12.20;99.90;;;;;;5045606;28;20040;-64
2022/08/31 04:55:15;;;;;;;2.80;2.10;;;12.20;99.90;;;;;;5045486;28;20083;-65
2022/08/31 04:57:41;;;;;;;2.80;1.98;;;12.20;99.90;;;;;;5047271;28;20052;-65
2022/08/31 05:00:09;;;;;;;2.90;2.05;;;12.20;99.90;;;;;;5045385;28;20033;-65
2022/08/31 05:02:35;;;;;;;3.17;1.83;;;12.30;99.90;;;;;;5045784;28;20202;-65
2022/08/31 05:05:01;;;;;;;2.38;2.05;;;12.30;99.90;;;;;;5047005;28;20041;-64
2022/08/31 05:07:27;;;;;;;3.08;1.90;;;12.30;99.90;;;;;;5047184;28;20052;-65
2022/08/31 05:09:53;;;;;;;3.55;2.10;;;12.30;99.90;;;;;;5045327;28;20041;-65
2022/08/31 05:12:19;;;;;;;3.78;2.28;;;12.30;99.90;;;;;;5045824;28;20490;-65
2022/08/31 05:14:46;;;;;;;3.55;2.30;;;12.30;99.90;;;;;;5046881;28;20048;-65
2022/08/31 05:17:12;;;;;;;4.25;2.10;;;12.30;99.90;;;;;;5044433;28;20457;-65
2022/08/31 05:19:38;;;;;;;5.32;2.30;;;12.30;99.90;;;;;;5045198;28;20033;-66
2022/08/31 05:22:04;;;;;;;3.28;2.10;;;12.30;99.90;;;;;;5049355;28;20394;-66
2022/08/31 05:24:34;;;;;;;3.03;2.38;;;12.30;99.90;;;;;;5050015;28;20041;-66
2022/08/31 05:27:00;;;;;;;3.33;2.20;;;12.30;99.90;;;;;;5050177;28;20395;-66
2022/08/31 05:29:26;;;;;;;3.22;2.35;;;12.30;99.90;;;;;;5046905;28;20034;-65
2022/08/31 05:31:51;;;;;;;3.33;2.15;;;12.30;99.90;;;;;;5049649;28;20133;-66
2022/08/31 05:34:17;;;;;;;4.63;2.47;;;12.30;99.90;;;;;;5047660;28;20037;-66
2022/08/31 05:36:47;;;;;;;3.70;2.55;;;12.30;99.90;;;;;;5048879;28;20025;-65
2022/08/31 05:39:13;;;;;;;4.68;2.13;;;12.30;99.90;;;;;;5049555;28;20029;-66
2022/08/31 05:41:41;;;;;;;6.28;2.17;;;12.30;99.90;;;;;;5049660;28;20029;-66
2022/08/31 05:44:08;;;;;;;4.43;2.40;;;12.30;99.90;;;;;;5044161;28;20048;-65
2022/08/31 05:46:34;;;;;;;4.43;2.45;;;12.30;99.90;;;;;;5049721;28;20045;-65
2022/08/31 05:48:59;;;;;;;3.85;2.20;;;12.30;99.90;;;;;;5050072;28;20099;-64
2022/08/31 05:51:25;;;;;;;4.20;2.50;;;12.30;99.90;;;;;;5044751;28;20041;-66
2022/08/31 05:53:51;;;;;;;3.42;2.42;;;12.30;99.90;;;;;;5049317;28;20036;-66
2022/08/31 05:56:19;;;;;;;4.30;2.50;;;12.40;99.90;;;;;;5052244;28;20120;-67
2022/08/31 05:58:47;;;;;;;2.72;2.15;;;12.40;99.90;;;;;;5053878;28;20037;-65
2022/08/31 06:01:25;;;;;;;4.50;2.30;;;12.50;99.90;;;;;;5050584;28;20037;-66
2022/08/31 06:03:53;;;;;;;5.15;2.50;;;12.50;99.90;;;;;;5051445;28;20156;-67
2022/08/31 06:06:19;;;;;;;7.07;2.40;;;12.50;99.90;;;;;;5052509;28;20045;-67
2022/08/31 06:08:45;;;;;;;5.00;2.47;;;12.50;99.90;;;;;;5032236;28;20055;-67
2022/08/31 06:11:14;;;;;;;4.90;2.60;;;12.60;99.90;;;;;;5050124;28;20499;-67
2022/08/31 06:13:41;;;;;;;4.07;2.40;;;12.70;99.90;;;;;;5053050;28;20045;-67
2022/08/31 06:16:07;;;;;;;3.72;2.70;;;12.80;99.90;;;;;;5053596;28;20072;-67
2022/08/31 06:18:32;;;;;;;4.35;2.45;;;12.80;99.90;;;;;;5050651;28;20509;-67
2022/08/31 06:21:08;;;;;;;5.72;2.53;;;12.90;99.90;;;;;;5052354;28;20112;-67
2022/08/31 06:23:38;;;;;;;5.25;2.70;;;13.00;99.90;;;;;;5051303;28;20119;-67
2022/08/31 06:26:06;;;;;;;3.85;2.53;;;13.10;99.90;;;;;;5050059;28;20090;-67
2022/08/31 06:28:33;;;;;;;3.55;2.50;;;13.20;99.90;;;;;;5052433;28;20114;-67
2022/08/31 06:31:00;;;;;;;4.40;2.97;;;13.30;99.90;;;;;;5052646;28;20072;-67
2022/08/31 06:33:28;;;;;;;3.78;2.50;;;13.40;99.90;;;;;;5053309;28;20586;-67
2022/08/31 06:35:54;;;;;;;5.32;2.50;;;13.50;99.90;;;;;;5050066;28;20037;-67
2022/08/31 06:38:20;;;;;;;3.90;2.50;;;13.50;99.90;;;;;;5051600;28;20517;-67
2022/08/31 06:40:46;;;;;;;4.63;2.60;;;13.60;99.90;;;;;;5050433;28;20078;-67
2022/08/31 06:43:12;;;;;;;7.18;2.67;;;13.70;99.90;;;;;;5052381;28;20052;-67
2022/08/31 06:45:38;;;;;;;13.57;2.92;;;13.80;99.90;;;;;;5052694;28;20119;-67
2022/08/31 06:48:04;;;;;;;4.80;2.38;;;13.90;99.90;;;;;;5053123;28;20115;-67
2022/08/31 06:50:30;;;;;;;2.85;2.25;;;14.10;99.90;;;;;;5030541;28;20428;-67
2022/08/31 06:52:56;;;;;;;4.70;2.80;;;14.10;99.90;;;;;;5052023;28;20037;-67
2022/08/31 06:55:22;;;;;;;3.42;2.60;;;14.20;99.90;;;;;;5052591;28;20041;-67
2022/08/31 06:57:47;;;;;;;7.28;2.72;;;14.30;99.90;;;;;;5050096;28;20037;-67
2022/08/31 07:00:13;;;;;;;7.20;2.60;;;14.40;99.90;;;;;;5052252;28;20040;-67
2022/08/31 07:02:39;;;;;;;4.18;2.58;;;14.50;99.90;;;;;;5052245;28;20068;-67
2022/08/31 07:05:05;;;;;;;5.65;2.60;;;14.50;99.90;;;;;;5052672;28;20455;-67
2022/08/31 07:07:31;;;;;;;6.45;2.60;;;14.60;99.90;;;;;;5049350;28;20041;-67
2022/08/31 07:09:56;;;;;;;6.32;2.55;;;14.70;99.90;;;;;;5034208;28;20037;-67
2022/08/31 07:12:22;;;;;;;3.08;2.40;;;14.70;99.90;;;;;;5052043;28;20128;-67
2022/08/31 07:14:48;;;;;;;4.20;2.70;;;14.80;99.90;;;;;;5047649;28;20048;-67
2022/08/31 07:17:13;;;;;;;5.22;2.40;;;14.90;99.90;;;;;;5051931;28;20456;-67
2022/08/31 07:19:39;;;;;;;5.07;2.33;;;15.00;99.90;;;;;;5041310;28;20037;-67
2022/08/31 07:22:08;;;;;;;5.13;2.42;;;15.00;99.90;;;;;;5050531;28;20037;-67
2022/08/31 07:24:34;;;;;;;3.85;2.15;;;15.10;99.90;;;;;;5052127;28;20064;-67
2022/08/31 07:27:10;;;;;;;5.88;2.42;;;15.20;99.90;;;;;;5051989;28;20044;-67
2022/08/31 07:29:40;;;;;;;4.85;2.35;;;15.30;99.90;;;;;;5049227;28;20113;-67
2022/08/31 07:32:08;;;;;;;3.83;2.30;;;15.50;99.90;;;;;;5026562;28;20396;-68
2022/08/31 07:34:35;;;;;;;4.63;2.20;;;15.50;99.90;;;;;;5051216;28;20079;-67
2022/08/31 07:42:42;;;;;;;6.05;2.03;;;15.80;99.90;;;;;;5050096;28;20049;-67
2022/08/31 07:45:12;;;;;;;3.97;2.00;;;15.90;99.90;;;;;;5051638;28;20041;-67
2022/08/31 07:47:44;;;;;;;2.55;1.65;;;15.90;99.90;;;;;;5050033;28;20379;-67
2022/08/31 07:50:10;;;;;;;4.47;2.00;;;16.00;99.90;;;;;;5050938;28;20036;-68
2022/08/31 07:52:47;;;;;;;6.53;2.00;;;16.10;99.90;;;;;;5048496;28;20047;-67
2022/08/31 07:55:15;;;;;;;6.22;2.10;;;16.20;99.90;;;;;;5049268;28;20040;-67
2022/08/31 07:57:44;;;;;;;2.60;1.80;;;16.20;99.90;;;;;;5049375;28;20116;-68
2022/08/31 08:00:17;;;;;;;3.03;1.70;;;16.30;99.90;;;;;;5047243;28;20036;-67
2022/08/31 08:02:45;;;;;;;3.60;1.90;;;16.40;99.90;;;;;;5050275;28;20052;-67
2022/08/31 08:05:19;;;;;;;2.97;1.70;;;16.40;99.90;;;;;;5045581;28;20567;-68
2022/08/31 08:07:48;;;;;;;4.38;1.70;;;16.50;99.90;;;;;;5049658;28;20094;-68
2022/08/31 08:10:16;;;;;;;6.82;1.90;;;16.60;99.90;;;;;;5051127;28;20047;-68
2022/08/31 08:12:45;;;;;;;2.75;1.60;;;16.60;99.90;;;;;;5030706;28;20695;-67
2022/08/31 08:15:11;;;;;;;5.70;1.75;;;16.70;99.90;;;;;;5050498;28;20415;-68
2022/08/31 08:17:37;;;;;;;5.50;1.60;;;16.70;99.90;;;;;;5050524;28;20064;-68
2022/08/31 08:20:04;;;;;;;2.83;1.95;;;16.80;99.90;;;;;;5051278;28;20033;-69
2022/08/31 08:22:30;;;;;;;4.88;1.88;;;16.90;99.90;;;;;;5027239;28;20135;-66
2022/08/31 08:24:56;;;;;;;3.55;1.50;;;17.00;99.90;;;;;;5050975;28;20112;-67
2022/08/31 08:27:22;;;;;;;2.28;1.40;;;17.10;99.90;;;;;;5032707;28;20467;-67
2022/08/31 08:29:48;;;;;;;4.05;1.60;;;17.10;99.90;;;;;;5030613;28;20495;-68
2022/08/31 08:32:13;;;;;;;6.18;2.00;;;17.20;99.70;;;;;;5050269;28;20048;-67
2022/08/31 08:34:42;;;;;;;1.80;1.40;;;17.30;99.90;;;;;;5041666;28;20041;-68
2022/08/31 08:37:12;;;;;;;4.68;1.45;;;17.30;99.70;;;;;;5030986;28;20037;-67
2022/08/31 08:39:39;;;;;;;5.25;1.70;;;17.40;99.90;;;;;;5029806;28;20033;-68
2022/08/31 08:42:09;;;;;;;6.00;1.55;;;17.50;99.40;;;;;;5050182;28;20041;-68
2022/08/31 08:44:37;;;;;;;4.85;1.30;;;17.70;98.90;;;;;;5050780;28;20041;-67
2022/08/31 08:47:06;;;;;;;2.10;1.20;;;17.70;97.80;;;;;;5050648;28;20047;-67
2022/08/31 08:49:41;;;;;;;2.20;1.30;;;17.80;98.20;;;;;;5029778;28;20499;-68
2022/08/31 08:52:21;;;;;;;4.90;1.40;;;17.80;97.60;;;;;;5032365;28;20053;-68
2022/08/31 08:54:49;;;;;;;5.67;1.70;;;17.90;98.00;;;;;;5030725;28;20053;-68
2022/08/31 08:57:41;;;;;;;6.93;1.70;;;18.00;97.70;;;;;;5049674;28;20036;-68
2022/08/31 09:00:19;;;;;;;4.32;1.50;;;18.10;97.50;;;;;;5049814;28;20048;-68
2022/08/31 09:02:59;;;;;;;5.05;1.70;;;18.20;97.30;;;;;;5050638;28;20033;-68
2022/08/31 09:06:19;;;;;;;4.72;1.60;;;18.30;97.80;;;;;;5047466;28;20041;-68
2022/08/31 09:09:16;;;;;;;5.40;1.40;;;18.30;96.50;;;;;;4949857;29;20079;-67
2022/08/31 09:12:03;;;;;;;7.25;1.30;;;18.40;94.50;;;;;;5045374;28;20032;-68
2022/08/31 09:14:34;;;;;;;3.42;1.20;;;18.50;94.50;;;;;;5049508;28;20175;-67
2022/08/31 09:17:40;;;;;;;2.73;1.20;;;18.50;95.90;;;;;;5032161;28;20501;-68
2022/08/31 09:20:07;;;;;;;3.60;1.30;;;18.60;94.00;;;;;;5050483;28;20037;-68
2022/08/31 09:22:49;;;;;;;3.47;1.20;;;18.70;94.30;;;;;;5047002;28;20068;-67
2022/08/31 09:25:18;;;;;;;2.20;1.00;;;18.70;93.70;;;;;;5032050;28;20123;-68
2022/08/31 09:27:49;;;;;;;4.05;1.20;;;18.70;93.10;;;;;;5050258;28;20522;-67
2022/08/31 09:30:34;;;;;;;2.75;1.20;;;18.90;94.20;;;;;;5049787;28;20052;-68
2022/08/31 09:33:00;;;;;;;13.13;1.50;;;19.00;93.30;;;;;;5053894;28;20111;-68
2022/08/31 09:35:35;;;;;;;3.95;1.27;;;19.00;93.00;;;;;;5054196;28;20132;-68
2022/08/31 09:38:08;;;;;;;2.00;1.20;;;19.10;92.50;;;;;;5033852;28;20052;-68
2022/08/31 09:40:41;;;;;;;2.33;1.25;;;19.00;93.20;;;;;;5053786;28;20033;-68
2022/08/31 09:43:22;;;;;;;3.58;1.38;;;19.10;92.80;;;;;;5053958;28;20124;-68
2022/08/31 09:46:01;;;;;;;5.38;1.40;;;19.10;92.40;;;;;;5049250;28;20048;-68
2022/08/31 09:48:55;;;;;;;2.05;1.30;;;19.30;92.20;;;;;;5035667;28;20048;-68
2022/08/31 09:51:32;;;;;;;4.45;1.20;;;19.40;92.60;;;;;;5053694;28;20491;-68
2022/08/31 09:56:54;;;;;;;4.70;1.23;;;19.50;91.50;;;;;;5050035;28;20044;-68
2022/08/31 09:59:40;;;;;;;2.78;1.00;;;19.50;91.10;;;;;;5053178;28;20037;-68
2022/08/31 10:02:36;;;;;;;7.45;1.50;;;19.60;90.30;;;;;;5050727;28;20041;-68
2022/08/31 10:05:22;;;;;;;7.57;1.40;;;19.60;90.50;;;;;;5048476;28;20146;-68
2022/08/31 10:08:05;;;;;;;2.60;1.27;;;19.60;90.70;;;;;;5049029;28;20029;-68
2022/08/31 10:10:37;;;;;;;3.75;1.17;;;19.70;92.00;;;;;;5035400;28;20056;-68
2022/08/31 10:13:18;;;;;;;3.83;1.40;;;19.80;92.50;;;;;;5053484;28;20041;-67
2022/08/31 10:16:05;;;;;;;4.60;1.42;;;19.90;92.00;;;;;;5031657;28;20080;-68
2022/08/31 10:18:49;;;;;;;3.90;1.50;;;19.90;91.00;;;;;;5047771;28;20048;-68
2022/08/31 10:21:34;;;;;;;2.38;1.48;;;20.00;91.40;;;;;;5050463;28;20037;-68
2022/08/31 10:24:32;;;;;;;4.65;1.20;;;20.10;92.20;;;;;;5051533;28;20567;-68
2022/08/31 10:27:07;;;;;;;2.30;1.50;;;20.20;91.20;;;;;;5051428;28;20037;-68
2022/08/31 10:29:48;;;;;;;3.72;1.60;;;20.30;90.70;;;;;;5048269;28;20491;-67
2022/08/31 10:32:38;;;;;;;2.47;1.50;;;20.50;91.50;;;;;;5052964;28;20041;-68
2022/08/31 10:35:13;;;;;;;3.47;1.33;;;20.50;91.90;;;;;;5050971;28;20041;-67
2022/08/31 10:37:53;;;;;;;6.05;1.35;;;20.70;89.70;;;;;;5049647;28;20417;-68
2022/08/31 10:40:31;;;;;;;3.92;1.23;;;20.80;87.50;;;;;;5053038;28;20044;-67
2022/08/31 10:43:16;;;;;;;1.83;1.33;;;20.80;87.10;;;;;;5052813;28;20537;-67
2022/08/31 10:45:45;;;;;;;3.33;1.20;;;20.90;89.50;;;;;;5051655;28;20120;-68
2022/08/31 10:48:14;;;;;;;6.18;1.50;;;21.00;86.90;;;;;;5052518;28;20048;-67
2022/08/31 10:51:04;;;;;;;5.97;1.40;;;21.10;88.40;;;;;;5032981;28;20140;-67
2022/08/31 10:53:52;;;;;;;7.70;1.38;;;21.30;85.20;;;;;;5049040;28;20102;-67
2022/08/31 10:56:26;;;;;;;3.42;1.00;;;21.30;82.70;;;;;;5052354;28;20126;-67
2022/08/31 10:59:09;;;;;;;2.80;1.10;;;21.30;85.30;;;;;;5052992;28;20037;-67
2022/08/31 11:01:40;;;;;;;6.18;1.20;;;21.40;84.40;;;;;;5049447;28;20033;-68
2022/08/31 11:04:30;;;;;;;3.00;1.15;;;21.50;89.10;;;;;;5052348;28;20494;-68
2022/08/31 11:07:23;;;;;;;6.22;1.40;;;21.60;87.50;;;;;;5032358;28;20045;-68
2022/08/31 11:09:59;;;;;;;6.10;1.42;;;21.60;85.10;;;;;;5043999;28;20044;-68
2022/08/31 11:12:32;;;;;;;3.63;1.10;;;21.70;79.40;;;;;;5049798;28;20040;-68
2022/08/31 11:15:21;;;;;;;2.10;1.23;;;21.70;80.20;;;;;;5050821;28;20702;-67
2022/08/31 11:18:24;;;;;;;2.03;1.25;;;21.60;76.60;;;;;;5027991;28;20047;-67
2022/08/31 11:21:08;;;;;;;3.65;1.60;;;21.80;75.20;;;;;;5051941;28;20056;-67
2022/08/31 11:23:41;;;;;;;4.85;1.23;;;21.80;78.70;;;;;;5052111;28;20041;-68
2022/08/31 11:26:13;;;;;;;3.35;1.58;;;21.90;76.80;;;;;;5049704;28;20530;-68
2022/08/31 11:29:17;;;;;;;3.28;1.30;;;21.80;80.00;;;;;;5051858;28;20044;-67
2022/08/31 11:31:43;;;;;;;1.92;1.27;;;21.80;78.70;;;;;;5031757;28;20053;-67
2022/08/31 11:34:25;;;;;;;4.60;1.38;;;22.00;79.60;;;;;;5037374;28;20040;-67
2022/08/31 11:36:56;;;;;;;1.95;1.27;;;22.10;77.90;;;;;;5045106;28;20067;-67
2022/08/31 11:39:34;;;;;;;6.90;1.20;;;22.10;77.00;;;;;;5051938;28;20064;-68
2022/08/31 11:42:18;;;;;;;6.40;1.60;;;22.20;78.70;;;;;;5049491;28;20632;-68
2022/08/31 11:44:58;;;;;;;5.25;1.40;;;22.20;77.60;;;;;;5051605;28;20041;-67
2022/08/31 11:47:26;;;;;;;1.95;1.38;;;22.20;79.00;;;;;;5051730;28;20037;-66
2022/08/31 11:49:54;;;;;;;4.78;1.40;;;22.50;78.20;;;;;;5051981;28;20041;-67
2022/08/31 11:52:23;;;;;;;2.30;1.42;;;22.40;79.60;;;;;;5048375;28;20029;-67
2022/08/31 11:54:49;;;;;;;3.70;1.25;;;22.40;75.90;;;;;;5050931;28;20068;-67
2022/08/31 11:57:23;;;;;;;5.50;1.13;;;22.40;78.50;;;;;;5051808;28;20431;-67
2022/08/31 11:59:50;;;;;;;5.30;1.27;;;22.60;79.00;;;;;;5048665;28;20464;-67
2022/08/31 12:02:19;;;;;;;6.95;1.50;;;22.70;75.20;;;;;;5050904;28;20029;-67
2022/08/31 12:04:50;;;;;;;4.72;1.38;;;22.60;72.30;;;;;;5051546;28;20047;-67
2022/08/31 12:07:31;;;;;;;6.15;1.50;;;22.50;75.80;;;;;;5048471;28;20076;-66
2022/08/31 12:10:05;;;;;;;1.98;1.35;;;22.60;75.80;;;;;;5051121;28;20048;-67
2022/08/31 12:12:55;;;;;;;4.20;1.27;;;22.70;75.90;;;;;;5051102;28;20049;-67
2022/08/31 12:15:50;;;;;;;4.63;1.55;;;22.80;76.20;;;;;;5048781;28;20044;-67
2022/08/31 12:18:38;;;;;;;5.72;1.80;;;23.00;75.80;;;;;;5045493;28;20482;-69
2022/08/31 12:24:41;;;;;;;4.85;1.33;;;23.10;73.40;;;;;;5049256;28;20045;-68
2022/08/31 12:27:12;;;;;;;1.40;1.20;;;23.20;72.10;;;;;;5046600;28;20037;-68
2022/08/31 12:29:39;;;;;;;6.35;1.38;;;23.00;70.00;;;;;;5050888;28;20450;-69
2022/08/31 12:32:27;;;;;;;5.97;1.42;;;23.00;67.00;;;;;;5048352;28;20518;-70
2022/08/31 12:34:59;;;;;;;2.95;1.13;;;23.10;66.00;;;;;;5044119;28;20516;-71
2022/08/31 12:37:34;;;;;;;5.70;1.30;;;23.20;66.60;;;;;;5047680;28;20094;-70
2022/08/31 12:40:06;;;;;;;2.88;1.20;;;23.30;68.20;;;;;;5050394;28;20079;-69
2022/08/31 12:42:59;;;;;;;5.28;1.63;;;23.30;69.30;;;;;;5050354;28;20087;-70
2022/08/31 12:46:03;;;;;;;3.17;1.20;;;23.40;68.60;;;;;;5047740;28;20045;-69
2022/08/31 12:48:53;;;;;;;1.92;1.20;;;23.50;65.50;;;;;;5046572;28;20035;-69
2022/08/31 12:51:40;;;;;;;3.00;1.30;;;23.50;62.90;;;;;;5045729;28;20041;-68
2022/08/31 12:54:33;;;;;;;2.17;1.10;;;23.30;63.50;;;;;;5050676;28;20033;-69
2022/08/31 12:57:24;;;;;;;2.67;1.33;;;23.60;65.40;;;;;;5048391;28;20053;-68
2022/08/31 13:00:09;;;;;;;3.30;1.23;;;23.60;65.00;;;;;;5049994;28;20591;-68
2022/08/31 13:02:41;;;;;;;3.30;1.17;;;23.80;67.50;;;;;;5048912;28;20120;-68
2022/08/31 13:05:37;;;;;;;1.77;1.08;;;24.00;64.60;;;;;;5047869;28;20106;-69
2022/08/31 13:08:20;;;;;;;1.38;1.23;;;24.00;61.40;;;;;;5032021;28;20061;-69
2022/08/31 13:10:46;;;;;;;2.30;1.10;;;23.90;63.70;;;;;;5042900;28;20041;-69
2022/08/31 13:13:25;;;;;;;1.95;1.02;;;24.10;66.10;;;;;;5050407;28;20037;-69
2022/08/31 13:15:59;;;;;;;1.80;1.20;;;24.10;65.70;;;;;;5047549;28;20478;-69
2022/08/31 13:18:29;;;;;;;4.03;1.30;;;24.20;65.10;;;;;;5048137;28;20118;-69
2022/08/31 13:21:01;;;;;;;4.88;1.38;;;24.30;65.40;;;;;;5032452;28;20044;-69
2022/08/31 13:23:39;;;;;;;3.22;1.30;;;24.30;63.80;;;;;;5030073;28;20053;-69
2022/08/31 13:26:19;;;;;;;4.10;0.98;;;24.30;65.00;;;;;;5045376;28;20041;-70